QFA4886 KMIA-SEQM
Flight info
| Callsign | QFA4886 |
|---|---|
| Flight time | N/A |
| Altitude | 35000 |
| Route | NNOCE2 URSUS UL780 GAXER/N0500F360 UL780 VUNIB/N0499F370 UL780 TBG UM674 ENSOL G426 NEGAL RNAV3 |
| Aircraft | B744/H-SDE1FGHIJ1RWXYZ/LB1 |
Departure
| Time | 2026-05-07 22:27 |
|---|---|
| Airport | Miami International Airport (KMIA) |
Arrival
| Time | N/A |
|---|---|
| Airport | Mariscal Sucre International Airport (SEQM) |
| Time | Latitude | Longitude | Altitude | Speed | Heading |
|---|---|---|---|---|---|
| 2026-05-07 21:51 | 25.80618 | -80.28369 | 23 ft | 0 kts | 358° |
| 2026-05-07 22:14 | 25.80614 | -80.28369 | 23 ft | 2 kts | 358° |
| 2026-05-07 22:14 | 25.80586 | -80.28368 | 23 ft | 5 kts | 358° |
| 2026-05-07 22:14 | 25.80554 | -80.28367 | 23 ft | 4 kts | 2° |
| 2026-05-07 22:15 | 25.80524 | -80.28376 | 23 ft | 5 kts | 31° |
| 2026-05-07 22:15 | 25.80502 | -80.28400 | 23 ft | 5 kts | 62° |
| 2026-05-07 22:15 | 25.80494 | -80.28433 | 23 ft | 5 kts | 92° |
| 2026-05-07 22:15 | 25.80502 | -80.28466 | 23 ft | 4 kts | 121° |
| 2026-05-07 22:16 | 25.80508 | -80.28476 | 23 ft | 0 kts | 126° |
| 2026-05-07 22:19 | 25.80502 | -80.28468 | 23 ft | 2 kts | 142° |
| 2026-05-07 22:19 | 25.80485 | -80.28461 | 23 ft | 3 kts | 185° |
| 2026-05-07 22:19 | 25.80465 | -80.28474 | 23 ft | 8 kts | 244° |
| 2026-05-07 22:20 | 25.80465 | -80.28559 | 23 ft | 13 kts | 273° |
| 2026-05-07 22:20 | 25.80462 | -80.28672 | 23 ft | 16 kts | 266° |
| 2026-05-07 22:20 | 25.80455 | -80.28807 | 23 ft | 19 kts | 267° |
| 2026-05-07 22:20 | 25.80449 | -80.28960 | 23 ft | 20 kts | 267° |
| 2026-05-07 22:21 | 25.80443 | -80.29121 | 23 ft | 21 kts | 268° |
| 2026-05-07 22:21 | 25.80437 | -80.29286 | 23 ft | 22 kts | 268° |
| 2026-05-07 22:21 | 25.80430 | -80.29453 | 23 ft | 22 kts | 267° |
| 2026-05-07 22:21 | 25.80423 | -80.29623 | 23 ft | 23 kts | 267° |
| 2026-05-07 22:22 | 25.80415 | -80.29819 | 23 ft | 25 kts | 268° |
| 2026-05-07 22:22 | 25.80409 | -80.29964 | 23 ft | 13 kts | 267° |
| 2026-05-07 22:22 | 25.80406 | -80.30057 | 23 ft | 9 kts | 268° |
| 2026-05-07 22:22 | 25.80404 | -80.30108 | 23 ft | 7 kts | 264° |
| 2026-05-07 22:23 | 25.80390 | -80.30134 | 23 ft | 5 kts | 201° |
| 2026-05-07 22:23 | 25.80381 | -80.30137 | 23 ft | 0 kts | 183° |
| 2026-05-07 22:23 | 25.80364 | -80.30138 | 23 ft | 4 kts | 183° |
| 2026-05-07 22:24 | 25.80323 | -80.30139 | 23 ft | 8 kts | 179° |
| 2026-05-07 22:24 | 25.80259 | -80.30136 | 23 ft | 11 kts | 176° |
| 2026-05-07 22:24 | 25.80184 | -80.30132 | 23 ft | 6 kts | 178° |
| 2026-05-07 22:24 | 25.80130 | -80.30130 | 23 ft | 9 kts | 179° |
| 2026-05-07 22:25 | 25.80081 | -80.30123 | 23 ft | 7 kts | 138° |
| 2026-05-07 22:25 | 25.80071 | -80.30075 | 23 ft | 0 kts | 89° |
| 2026-05-07 22:26 | 25.80075 | -80.29969 | 23 ft | 37 kts | 86° |
| 2026-05-07 22:26 | 25.80101 | -80.29384 | 23 ft | 111 kts | 88° |
| 2026-05-07 22:26 | 25.80146 | -80.28266 | 44 ft | 172 kts | 88° |
| 2026-05-07 22:27 | 25.80235 | -80.26882 | 433 ft | 183 kts | 87° |
| 2026-05-07 22:27 | 25.80148 | -80.25522 | 1029 ft | 177 kts | 115° |
| 2026-05-07 22:27 | 25.79319 | -80.24463 | 1563 ft | 191 kts | 142° |
| 2026-05-07 22:27 | 25.78219 | -80.23528 | 2021 ft | 206 kts | 141° |
| 2026-05-07 22:28 | 25.77088 | -80.22465 | 2035 ft | 221 kts | 139° |
| 2026-05-07 22:28 | 25.75895 | -80.21307 | 2037 ft | 234 kts | 139° |
| 2026-05-07 22:28 | 25.74609 | -80.20097 | 2031 ft | 249 kts | 144° |
| 2026-05-07 22:28 | 25.72973 | -80.19323 | 2131 ft | 263 kts | 167° |
| 2026-05-07 22:29 | 25.71144 | -80.19081 | 2421 ft | 268 kts | 174° |
| 2026-05-07 22:29 | 25.69277 | -80.18980 | 2795 ft | 271 kts | 176° |
| 2026-05-07 22:29 | 25.67387 | -80.18961 | 3364 ft | 273 kts | 182° |
| 2026-05-07 22:29 | 25.65494 | -80.19225 | 3990 ft | 275 kts | 186° |
| 2026-05-07 22:30 | 25.63591 | -80.19512 | 4607 ft | 277 kts | 185° |
| 2026-05-07 22:30 | 25.61683 | -80.19387 | 5195 ft | 278 kts | 163° |
| 2026-05-07 22:30 | 25.59924 | -80.18506 | 5828 ft | 279 kts | 152° |
| 2026-05-07 22:30 | 25.58225 | -80.17429 | 6450 ft | 283 kts | 150° |
| 2026-05-07 22:31 | 25.56531 | -80.16285 | 7076 ft | 286 kts | 149° |
| 2026-05-07 22:31 | 25.54821 | -80.15116 | 7704 ft | 290 kts | 149° |
| 2026-05-07 22:31 | 25.53088 | -80.13943 | 8333 ft | 293 kts | 150° |
| 2026-05-07 22:31 | 25.51331 | -80.12766 | 8963 ft | 297 kts | 150° |
| 2026-05-07 22:32 | 25.49554 | -80.11586 | 9592 ft | 300 kts | 150° |
| 2026-05-07 22:32 | 25.47753 | -80.10395 | 10224 ft | 304 kts | 151° |
| 2026-05-07 22:32 | 25.45913 | -80.09182 | 10680 ft | 317 kts | 151° |
| 2026-05-07 22:32 | 25.43957 | -80.07899 | 10997 ft | 336 kts | 151° |
| 2026-05-07 22:33 | 25.41891 | -80.06545 | 11265 ft | 354 kts | 151° |
| 2026-05-07 22:33 | 25.39710 | -80.05118 | 11480 ft | 374 kts | 151° |
| 2026-05-07 22:33 | 25.37436 | -80.03642 | 11751 ft | 384 kts | 151° |
| 2026-05-07 22:33 | 25.35103 | -80.02105 | 12192 ft | 397 kts | 150° |
| 2026-05-07 22:34 | 25.32696 | -80.00512 | 12690 ft | 411 kts | 151° |
| 2026-05-07 22:34 | 25.30205 | -79.98906 | 13224 ft | 419 kts | 150° |
| 2026-05-07 22:34 | 25.27667 | -79.97302 | 13787 ft | 420 kts | 149° |
| 2026-05-07 22:34 | 25.25151 | -79.95653 | 14364 ft | 423 kts | 147° |
| 2026-05-07 22:35 | 25.22669 | -79.93911 | 14995 ft | 424 kts | 145° |
| 2026-05-07 22:35 | 25.20193 | -79.92117 | 15635 ft | 427 kts | 145° |
| 2026-05-07 22:35 | 25.17706 | -79.90299 | 16261 ft | 432 kts | 145° |
| 2026-05-07 22:35 | 25.15195 | -79.88470 | 16876 ft | 433 kts | 145° |
| 2026-05-07 22:36 | 25.13515 | -79.87255 | 17275 ft | 437 kts | 145° |
| 2026-05-07 22:36 | 25.10956 | -79.85417 | 17865 ft | 439 kts | 145° |
| 2026-05-07 22:36 | 25.08372 | -79.83576 | 18449 ft | 445 kts | 145° |
| 2026-05-07 22:36 | 25.05764 | -79.81727 | 19015 ft | 448 kts | 145° |
| 2026-05-07 22:37 | 25.03130 | -79.79865 | 19569 ft | 451 kts | 145° |
| 2026-05-07 22:37 | 25.00473 | -79.77990 | 20108 ft | 455 kts | 145° |
| 2026-05-07 22:37 | 24.97788 | -79.76080 | 20626 ft | 467 kts | 146° |
| 2026-05-07 22:37 | 24.95050 | -79.74110 | 21126 ft | 468 kts | 146° |
| 2026-05-07 22:38 | 24.92293 | -79.72208 | 21566 ft | 467 kts | 146° |
| 2026-05-07 22:38 | 24.89535 | -79.70297 | 22054 ft | 468 kts | 146° |
| 2026-05-07 22:38 | 24.86759 | -79.68335 | 22525 ft | 485 kts | 146° |
| 2026-05-07 22:38 | 24.83953 | -79.66287 | 22978 ft | 489 kts | 146° |
| 2026-05-07 22:39 | 24.81099 | -79.64255 | 23421 ft | 489 kts | 147° |
| 2026-05-07 22:39 | 24.78213 | -79.62308 | 23800 ft | 486 kts | 147° |
| 2026-05-07 22:39 | 24.75352 | -79.60354 | 24176 ft | 484 kts | 146° |
| 2026-05-07 22:39 | 24.72508 | -79.58359 | 24595 ft | 485 kts | 145° |
| 2026-05-07 22:40 | 24.69633 | -79.56292 | 24997 ft | 503 kts | 145° |
| 2026-05-07 22:40 | 24.66724 | -79.54149 | 25389 ft | 506 kts | 146° |
| 2026-05-07 22:40 | 24.63819 | -79.52048 | 25769 ft | 509 kts | 148° |
| 2026-05-07 22:40 | 24.60837 | -79.49960 | 26145 ft | 511 kts | 148° |
| 2026-05-07 22:41 | 24.57825 | -79.47883 | 26516 ft | 514 kts | 149° |
| 2026-05-07 22:41 | 24.54795 | -79.45799 | 26878 ft | 514 kts | 149° |
| 2026-05-07 22:41 | 24.51751 | -79.43697 | 27233 ft | 517 kts | 148° |
| 2026-05-07 22:41 | 24.48698 | -79.41578 | 27579 ft | 522 kts | 148° |
| 2026-05-07 22:42 | 24.45634 | -79.39440 | 27914 ft | 522 kts | 148° |
| 2026-05-07 22:42 | 24.42556 | -79.37288 | 28241 ft | 527 kts | 148° |
| 2026-05-07 22:42 | 24.39465 | -79.35126 | 28561 ft | 528 kts | 148° |
| 2026-05-07 22:42 | 24.36360 | -79.32954 | 28874 ft | 529 kts | 148° |
| 2026-05-07 22:43 | 24.33243 | -79.30775 | 29220 ft | 531 kts | 148° |
| 2026-05-07 22:43 | 24.30127 | -79.28599 | 29587 ft | 531 kts | 148° |
| 2026-05-07 22:43 | 24.27027 | -79.26407 | 29963 ft | 532 kts | 147° |
| 2026-05-07 22:43 | 24.23941 | -79.24186 | 30347 ft | 530 kts | 147° |
| 2026-05-07 22:44 | 24.20867 | -79.21962 | 30738 ft | 529 kts | 147° |
| 2026-05-07 22:44 | 24.17797 | -79.19741 | 31133 ft | 529 kts | 147° |
| 2026-05-07 22:44 | 24.14731 | -79.17528 | 31533 ft | 531 kts | 147° |
| 2026-05-07 22:44 | 24.11663 | -79.15320 | 31938 ft | 529 kts | 147° |
| 2026-05-07 22:45 | 24.08600 | -79.13121 | 32351 ft | 527 kts | 147° |
| 2026-05-07 22:45 | 24.05536 | -79.10927 | 32771 ft | 526 kts | 148° |
| 2026-05-07 22:45 | 24.02426 | -79.08838 | 33178 ft | 524 kts | 154° |
| 2026-05-07 22:45 | 23.99016 | -79.07490 | 33608 ft | 520 kts | 169° |
| 2026-05-07 22:46 | 23.95442 | -79.07017 | 34066 ft | 517 kts | 179° |
| 2026-05-07 22:46 | 23.91866 | -79.06971 | 34507 ft | 515 kts | 183° |
| 2026-05-07 22:46 | 23.88297 | -79.07063 | 34868 ft | 513 kts | 184° |
| 2026-05-07 22:46 | 23.84737 | -79.07204 | 34983 ft | 509 kts | 184° |
| 2026-05-07 22:47 | 23.81195 | -79.07348 | 34995 ft | 510 kts | 184° |
| 2026-05-07 22:47 | 23.74147 | -79.07572 | 34992 ft | 507 kts | 184° |
| 2026-05-07 22:48 | 23.67105 | -79.07738 | 34992 ft | 508 kts | 183° |
| 2026-05-07 22:48 | 23.60057 | -79.07890 | 34992 ft | 505 kts | 183° |